Poznan Lawica General Airport Poznan PL
ICAO: EPPO
IATA: POZ
Category: Large
Scheduled Services: Yes

Elevation: 308 ft
TransAlt. 6562 ft.

Airport Communications:
POZNAN APP:135.525
POZNAN ATIS:124.7
POZNAN TWR:119.975

EPPO Zoom In..

If you have problems with the map follow the link
https://www.worldairports.se/pages/airport.php?
ICAO=EPPO

Runways:

(A) RW 10 length 8215 ft width 164 ft
---- / hdg 104

(B) RW 28 length 8215 ft width 164 ft
ILS 110.30 / hdg 284

Location; EPPO
Day. 05 / Time. 15.30 Zulu
* QNH: 1019
* Temperature: 01° c. 33.8°f.
* Wind from: 200° Speed 04 kn.
Dewpoint: -02° c.
Visibility: 10 km or more,
No clouds below 1,500 m.
No cumulonimbus, and no significant weather
fenomena in the aerodrome or its vicinity.

EPPO 051530Z 20004KT CAVOK 01/M02 Q1019


Wind From 200°
Speed 04 kn.

 
 
jpsmedia worldairports.se 2019   terms of use